sensor_id;sensor_type;location;lat;lon;timestamp;P1;durP1;ratioP1;P2;durP2;ratioP2
62037;SDS011;47991;42.974;12.082;2024-01-15T00:02:12;1.50;;;0.80;;
62037;SDS011;47991;42.974;12.082;2024-01-15T00:04:39;1.40;;;0.90;;
62037;SDS011;47991;42.974;12.082;2024-01-15T00:07:07;1.70;;;0.90;;
62037;SDS011;47991;42.974;12.082;2024-01-15T00:09:35;1.00;;;0.90;;
62037;SDS011;47991;42.974;12.082;2024-01-15T00:12:02;1.00;;;0.60;;
62037;SDS011;47991;42.974;12.082;2024-01-15T00:14:29;1.60;;;0.80;;
62037;SDS011;47991;42.974;12.082;2024-01-15T00:16:56;1.50;;;0.70;;
62037;SDS011;47991;42.974;12.082;2024-01-15T00:19:23;0.60;;;0.60;;
62037;SDS011;47991;42.974;12.082;2024-01-15T00:21:50;0.80;;;0.80;;
62037;SDS011;47991;42.974;12.082;2024-01-15T00:24:17;1.30;;;0.70;;
62037;SDS011;47991;42.974;12.082;2024-01-15T00:26:44;1.00;;;0.60;;
62037;SDS011;47991;42.974;12.082;2024-01-15T00:29:11;0.70;;;0.50;;
62037;SDS011;47991;42.974;12.082;2024-01-15T00:31:38;1.80;;;0.70;;
62037;SDS011;47991;42.974;12.082;2024-01-15T00:34:05;0.60;;;0.50;;
62037;SDS011;47991;42.974;12.082;2024-01-15T00:36:32;1.60;;;0.60;;
62037;SDS011;47991;42.974;12.082;2024-01-15T00:38:58;0.80;;;0.70;;
62037;SDS011;47991;42.974;12.082;2024-01-15T00:41:25;0.70;;;0.70;;
62037;SDS011;47991;42.974;12.082;2024-01-15T00:43:54;0.80;;;0.80;;
62037;SDS011;47991;42.974;12.082;2024-01-15T00:46:21;0.80;;;0.70;;
62037;SDS011;47991;42.974;12.082;2024-01-15T00:48:47;0.90;;;0.80;;
62037;SDS011;47991;42.974;12.082;2024-01-15T00:51:14;0.90;;;0.70;;
62037;SDS011;47991;42.974;12.082;2024-01-15T00:53:41;1.00;;;0.70;;
62037;SDS011;47991;42.974;12.082;2024-01-15T00:56:08;0.80;;;0.60;;
62037;SDS011;47991;42.974;12.082;2024-01-15T00:58:35;0.70;;;0.70;;
62037;SDS011;47991;42.974;12.082;2024-01-15T01:01:02;1.20;;;0.80;;
62037;SDS011;47991;42.974;12.082;2024-01-15T01:03:29;1.60;;;0.80;;
62037;SDS011;47991;42.974;12.082;2024-01-15T01:05:57;1.10;;;1.00;;
62037;SDS011;47991;42.974;12.082;2024-01-15T01:08:24;1.30;;;1.00;;
62037;SDS011;47991;42.974;12.082;2024-01-15T01:10:51;2.00;;;1.10;;
62037;SDS011;47991;42.974;12.082;2024-01-15T01:13:17;2.50;;;1.10;;
62037;SDS011;47991;42.974;12.082;2024-01-15T01:15:44;2.80;;;1.50;;
62037;SDS011;47991;42.974;12.082;2024-01-15T01:18:11;3.50;;;1.40;;
62037;SDS011;47991;42.974;12.082;2024-01-15T01:20:38;2.90;;;1.40;;
62037;SDS011;47991;42.974;12.082;2024-01-15T01:23:05;3.10;;;1.70;;
62037;SDS011;47991;42.974;12.082;2024-01-15T01:25:32;2.20;;;1.60;;
62037;SDS011;47991;42.974;12.082;2024-01-15T01:27:59;4.80;;;1.90;;
62037;SDS011;47991;42.974;12.082;2024-01-15T01:30:26;2.40;;;1.50;;
62037;SDS011;47991;42.974;12.082;2024-01-15T01:32:52;5.40;;;1.80;;
62037;SDS011;47991;42.974;12.082;2024-01-15T01:35:19;4.00;;;1.90;;
62037;SDS011;47991;42.974;12.082;2024-01-15T01:37:46;1.80;;;1.40;;
62037;SDS011;47991;42.974;12.082;2024-01-15T01:40:13;4.90;;;1.70;;
62037;SDS011;47991;42.974;12.082;2024-01-15T01:42:40;3.50;;;1.60;;
62037;SDS011;47991;42.974;12.082;2024-01-15T01:45:07;4.00;;;1.60;;
62037;SDS011;47991;42.974;12.082;2024-01-15T01:47:35;4.70;;;1.80;;
62037;SDS011;47991;42.974;12.082;2024-01-15T01:50:02;4.60;;;1.90;;
62037;SDS011;47991;42.974;12.082;2024-01-15T01:52:30;3.70;;;1.30;;
62037;SDS011;47991;42.974;12.082;2024-01-15T01:54:58;4.20;;;1.60;;
62037;SDS011;47991;42.974;12.082;2024-01-15T01:57:29;2.40;;;1.20;;
62037;SDS011;47991;42.974;12.082;2024-01-15T01:59:57;2.30;;;1.40;;
62037;SDS011;47991;42.974;12.082;2024-01-15T02:02:24;3.40;;;1.70;;
62037;SDS011;47991;42.974;12.082;2024-01-15T02:04:52;1.60;;;1.30;;
62037;SDS011;47991;42.974;12.082;2024-01-15T02:07:19;2.80;;;1.40;;
62037;SDS011;47991;42.974;12.082;2024-01-15T02:09:46;1.90;;;1.20;;
62037;SDS011;47991;42.974;12.082;2024-01-15T02:12:14;1.70;;;1.20;;
62037;SDS011;47991;42.974;12.082;2024-01-15T02:14:41;3.50;;;1.80;;
62037;SDS011;47991;42.974;12.082;2024-01-15T02:17:09;1.60;;;1.40;;
62037;SDS011;47991;42.974;12.082;2024-01-15T02:19:36;2.70;;;1.40;;
62037;SDS011;47991;42.974;12.082;2024-01-15T02:22:03;3.40;;;1.40;;
62037;SDS011;47991;42.974;12.082;2024-01-15T02:24:30;1.80;;;1.30;;
62037;SDS011;47991;42.974;12.082;2024-01-15T02:26:57;2.30;;;1.20;;
62037;SDS011;47991;42.974;12.082;2024-01-15T02:29:24;2.30;;;1.30;;
62037;SDS011;47991;42.974;12.082;2024-01-15T02:31:51;1.50;;;1.10;;
62037;SDS011;47991;42.974;12.082;2024-01-15T02:34:17;1.90;;;1.30;;
62037;SDS011;47991;42.974;12.082;2024-01-15T02:36:44;3.20;;;1.50;;
62037;SDS011;47991;42.974;12.082;2024-01-15T02:39:11;2.50;;;1.50;;
62037;SDS011;47991;42.974;12.082;2024-01-15T02:41:38;2.30;;;1.30;;
62037;SDS011;47991;42.974;12.082;2024-01-15T02:44:05;1.90;;;1.50;;
62037;SDS011;47991;42.974;12.082;2024-01-15T02:46:32;3.10;;;1.40;;
62037;SDS011;47991;42.974;12.082;2024-01-15T02:48:58;3.00;;;1.60;;
62037;SDS011;47991;42.974;12.082;2024-01-15T02:51:25;3.30;;;1.80;;
62037;SDS011;47991;42.974;12.082;2024-01-15T02:53:52;5.10;;;1.80;;
62037;SDS011;47991;42.974;12.082;2024-01-15T02:56:19;3.80;;;1.90;;
62037;SDS011;47991;42.974;12.082;2024-01-15T02:58:46;4.30;;;1.90;;
62037;SDS011;47991;42.974;12.082;2024-01-15T03:01:13;6.10;;;2.30;;
62037;SDS011;47991;42.974;12.082;2024-01-15T03:03:40;6.80;;;2.50;;
62037;SDS011;47991;42.974;12.082;2024-01-15T03:06:07;7.30;;;2.60;;
62037;SDS011;47991;42.974;12.082;2024-01-15T03:08:34;8.40;;;2.70;;
62037;SDS011;47991;42.974;12.082;2024-01-15T03:11:02;4.90;;;2.40;;
62037;SDS011;47991;42.974;12.082;2024-01-15T03:13:29;5.50;;;2.40;;
62037;SDS011;47991;42.974;12.082;2024-01-15T03:15:56;5.40;;;2.90;;
62037;SDS011;47991;42.974;12.082;2024-01-15T03:18:23;5.90;;;2.30;;
62037;SDS011;47991;42.974;12.082;2024-01-15T03:20:50;7.30;;;3.00;;
62037;SDS011;47991;42.974;12.082;2024-01-15T03:23:17;8.50;;;2.80;;
62037;SDS011;47991;42.974;12.082;2024-01-15T03:25:44;7.70;;;3.10;;
62037;SDS011;47991;42.974;12.082;2024-01-15T03:28:12;7.80;;;2.90;;
62037;SDS011;47991;42.974;12.082;2024-01-15T03:30:39;10.10;;;3.10;;
62037;SDS011;47991;42.974;12.082;2024-01-15T03:33:06;5.90;;;2.90;;
62037;SDS011;47991;42.974;12.082;2024-01-15T03:35:33;12.10;;;3.60;;
62037;SDS011;47991;42.974;12.082;2024-01-15T03:38:00;8.20;;;3.10;;
62037;SDS011;47991;42.974;12.082;2024-01-15T03:40:27;8.60;;;2.90;;
62037;SDS011;47991;42.974;12.082;2024-01-15T03:42:54;8.40;;;2.90;;
62037;SDS011;47991;42.974;12.082;2024-01-15T03:45:21;10.40;;;2.70;;
62037;SDS011;47991;42.974;12.082;2024-01-15T03:47:48;10.60;;;3.00;;
62037;SDS011;47991;42.974;12.082;2024-01-15T03:50:15;5.30;;;2.20;;
62037;SDS011;47991;42.974;12.082;2024-01-15T03:52:42;13.70;;;4.20;;
62037;SDS011;47991;42.974;12.082;2024-01-15T03:55:09;7.00;;;2.70;;
62037;SDS011;47991;42.974;12.082;2024-01-15T03:57:36;7.70;;;3.10;;
62037;SDS011;47991;42.974;12.082;2024-01-15T04:00:03;10.50;;;3.30;;
62037;SDS011;47991;42.974;12.082;2024-01-15T04:02:31;7.40;;;2.80;;
62037;SDS011;47991;42.974;12.082;2024-01-15T04:04:58;6.50;;;3.40;;
62037;SDS011;47991;42.974;12.082;2024-01-15T04:07:25;10.10;;;3.20;;
62037;SDS011;47991;42.974;12.082;2024-01-15T04:09:52;8.30;;;3.50;;
62037;SDS011;47991;42.974;12.082;2024-01-15T04:12:19;7.20;;;3.20;;
62037;SDS011;47991;42.974;12.082;2024-01-15T04:14:46;8.30;;;3.30;;
62037;SDS011;47991;42.974;12.082;2024-01-15T04:17:13;10.20;;;3.70;;
62037;SDS011;47991;42.974;12.082;2024-01-15T04:19:41;10.20;;;3.50;;
62037;SDS011;47991;42.974;12.082;2024-01-15T04:22:10;11.80;;;3.70;;
62037;SDS011;47991;42.974;12.082;2024-01-15T04:24:37;10.50;;;3.60;;
62037;SDS011;47991;42.974;12.082;2024-01-15T04:27:05;8.90;;;3.10;;
62037;SDS011;47991;42.974;12.082;2024-01-15T04:29:33;11.30;;;3.80;;
62037;SDS011;47991;42.974;12.082;2024-01-15T04:32:00;9.20;;;3.40;;
62037;SDS011;47991;42.974;12.082;2024-01-15T04:34:27;11.30;;;3.60;;
62037;SDS011;47991;42.974;12.082;2024-01-15T04:36:54;7.20;;;3.00;;
62037;SDS011;47991;42.974;12.082;2024-01-15T04:39:21;7.90;;;3.20;;
62037;SDS011;47991;42.974;12.082;2024-01-15T04:41:48;10.90;;;3.40;;
62037;SDS011;47991;42.974;12.082;2024-01-15T04:44:16;10.30;;;3.70;;
62037;SDS011;47991;42.974;12.082;2024-01-15T04:46:43;9.50;;;3.70;;
62037;SDS011;47991;42.974;12.082;2024-01-15T04:49:10;9.30;;;3.70;;
62037;SDS011;47991;42.974;12.082;2024-01-15T04:51:38;9.10;;;3.90;;
62037;SDS011;47991;42.974;12.082;2024-01-15T04:54:05;8.50;;;3.00;;
62037;SDS011;47991;42.974;12.082;2024-01-15T04:56:32;9.80;;;3.40;;
62037;SDS011;47991;42.974;12.082;2024-01-15T04:58:59;10.50;;;3.20;;
62037;SDS011;47991;42.974;12.082;2024-01-15T05:01:30;13.70;;;3.60;;
62037;SDS011;47991;42.974;12.082;2024-01-15T05:04:00;12.00;;;3.80;;
62037;SDS011;47991;42.974;12.082;2024-01-15T05:06:28;11.60;;;4.00;;
62037;SDS011;47991;42.974;12.082;2024-01-15T05:08:54;10.90;;;3.70;;
62037;SDS011;47991;42.974;12.082;2024-01-15T05:11:22;15.30;;;4.00;;
62037;SDS011;47991;42.974;12.082;2024-01-15T05:13:49;10.80;;;3.60;;
62037;SDS011;47991;42.974;12.082;2024-01-15T05:16:16;10.60;;;3.80;;
62037;SDS011;47991;42.974;12.082;2024-01-15T05:18:44;14.50;;;4.40;;
62037;SDS011;47991;42.974;12.082;2024-01-15T05:21:12;15.30;;;4.00;;
62037;SDS011;47991;42.974;12.082;2024-01-15T05:23:39;8.80;;;3.60;;
62037;SDS011;47991;42.974;12.082;2024-01-15T05:26:06;11.60;;;4.10;;
62037;SDS011;47991;42.974;12.082;2024-01-15T05:28:35;11.40;;;3.50;;
62037;SDS011;47991;42.974;12.082;2024-01-15T05:31:02;13.40;;;3.70;;
62037;SDS011;47991;42.974;12.082;2024-01-15T05:33:30;11.20;;;4.00;;
62037;SDS011;47991;42.974;12.082;2024-01-15T05:35:57;12.10;;;3.50;;
62037;SDS011;47991;42.974;12.082;2024-01-15T05:38:25;12.50;;;4.00;;
62037;SDS011;47991;42.974;12.082;2024-01-15T05:40:52;18.00;;;4.40;;
62037;SDS011;47991;42.974;12.082;2024-01-15T05:43:19;10.40;;;4.10;;
62037;SDS011;47991;42.974;12.082;2024-01-15T05:45:47;15.00;;;4.30;;
62037;SDS011;47991;42.974;12.082;2024-01-15T05:48:14;16.20;;;4.30;;
62037;SDS011;47991;42.974;12.082;2024-01-15T05:50:41;13.20;;;3.80;;
62037;SDS011;47991;42.974;12.082;2024-01-15T05:53:08;13.60;;;4.60;;
62037;SDS011;47991;42.974;12.082;2024-01-15T05:55:36;17.80;;;5.00;;
62037;SDS011;47991;42.974;12.082;2024-01-15T05:58:04;10.10;;;3.40;;
62037;SDS011;47991;42.974;12.082;2024-01-15T06:00:32;12.80;;;3.70;;
62037;SDS011;47991;42.974;12.082;2024-01-15T06:03:02;15.60;;;3.70;;
62037;SDS011;47991;42.974;12.082;2024-01-15T06:05:29;12.10;;;4.30;;
62037;SDS011;47991;42.974;12.082;2024-01-15T06:07:56;11.80;;;4.20;;
62037;SDS011;47991;42.974;12.082;2024-01-15T06:10:24;10.50;;;4.00;;
62037;SDS011;47991;42.974;12.082;2024-01-15T06:12:51;11.10;;;4.20;;
62037;SDS011;47991;42.974;12.082;2024-01-15T06:15:18;13.70;;;3.90;;
62037;SDS011;47991;42.974;12.082;2024-01-15T06:17:44;13.00;;;4.30;;
62037;SDS011;47991;42.974;12.082;2024-01-15T06:20:12;17.70;;;4.40;;
62037;SDS011;47991;42.974;12.082;2024-01-15T06:22:39;14.00;;;4.10;;
62037;SDS011;47991;42.974;12.082;2024-01-15T06:25:08;8.80;;;3.60;;
62037;SDS011;47991;42.974;12.082;2024-01-15T06:27:35;11.90;;;4.20;;
62037;SDS011;47991;42.974;12.082;2024-01-15T06:30:03;12.50;;;4.20;;
62037;SDS011;47991;42.974;12.082;2024-01-15T06:32:31;12.40;;;3.70;;
62037;SDS011;47991;42.974;12.082;2024-01-15T06:34:58;16.70;;;4.20;;
62037;SDS011;47991;42.974;12.082;2024-01-15T06:37:25;11.70;;;3.70;;
62037;SDS011;47991;42.974;12.082;2024-01-15T06:39:51;15.20;;;4.00;;
62037;SDS011;47991;42.974;12.082;2024-01-15T06:42:18;9.40;;;3.60;;
62037;SDS011;47991;42.974;12.082;2024-01-15T06:44:48;14.80;;;4.40;;
62037;SDS011;47991;42.974;12.082;2024-01-15T06:47:15;12.70;;;4.40;;
62037;SDS011;47991;42.974;12.082;2024-01-15T06:49:44;13.40;;;4.80;;
62037;SDS011;47991;42.974;12.082;2024-01-15T06:52:10;14.90;;;5.90;;
62037;SDS011;47991;42.974;12.082;2024-01-15T06:54:38;14.10;;;5.80;;
62037;SDS011;47991;42.974;12.082;2024-01-15T06:57:05;12.90;;;6.00;;
62037;SDS011;47991;42.974;12.082;2024-01-15T06:59:33;14.80;;;6.20;;
62037;SDS011;47991;42.974;12.082;2024-01-15T07:02:02;16.60;;;6.30;;
62037;SDS011;47991;42.974;12.082;2024-01-15T07:04:29;15.70;;;6.80;;
62037;SDS011;47991;42.974;12.082;2024-01-15T07:06:56;15.70;;;7.90;;
62037;SDS011;47991;42.974;12.082;2024-01-15T07:09:23;20.10;;;7.50;;
62037;SDS011;47991;42.974;12.082;2024-01-15T07:11:50;15.90;;;7.70;;
62037;SDS011;47991;42.974;12.082;2024-01-15T07:14:17;13.80;;;7.20;;
62037;SDS011;47991;42.974;12.082;2024-01-15T07:16:44;17.50;;;8.90;;
62037;SDS011;47991;42.974;12.082;2024-01-15T07:19:11;18.00;;;8.40;;
62037;SDS011;47991;42.974;12.082;2024-01-15T07:21:38;14.50;;;7.20;;
62037;SDS011;47991;42.974;12.082;2024-01-15T07:24:06;16.10;;;7.20;;
62037;SDS011;47991;42.974;12.082;2024-01-15T07:26:33;16.30;;;7.30;;
62037;SDS011;47991;42.974;12.082;2024-01-15T07:29:00;12.80;;;6.30;;
62037;SDS011;47991;42.974;12.082;2024-01-15T07:31:27;12.90;;;5.70;;
62037;SDS011;47991;42.974;12.082;2024-01-15T07:33:54;14.40;;;5.40;;
62037;SDS011;47991;42.974;12.082;2024-01-15T07:36:21;14.30;;;6.10;;
62037;SDS011;47991;42.974;12.082;2024-01-15T07:38:47;13.50;;;4.90;;
62037;SDS011;47991;42.974;12.082;2024-01-15T07:41:14;15.70;;;5.10;;
62037;SDS011;47991;42.974;12.082;2024-01-15T07:43:41;15.80;;;5.70;;
62037;SDS011;47991;42.974;12.082;2024-01-15T07:46:08;13.90;;;6.50;;
62037;SDS011;47991;42.974;12.082;2024-01-15T07:48:35;13.50;;;5.30;;
62037;SDS011;47991;42.974;12.082;2024-01-15T07:51:02;13.40;;;5.30;;
62037;SDS011;47991;42.974;12.082;2024-01-15T07:53:30;17.10;;;5.30;;
62037;SDS011;47991;42.974;12.082;2024-01-15T07:55:57;13.70;;;5.10;;
62037;SDS011;47991;42.974;12.082;2024-01-15T07:58:25;17.70;;;6.10;;
62037;SDS011;47991;42.974;12.082;2024-01-15T08:00:52;12.90;;;5.10;;
62037;SDS011;47991;42.974;12.082;2024-01-15T08:03:19;14.80;;;5.50;;
62037;SDS011;47991;42.974;12.082;2024-01-15T08:05:46;13.00;;;4.20;;
62037;SDS011;47991;42.974;12.082;2024-01-15T08:08:13;10.40;;;4.50;;
62037;SDS011;47991;42.974;12.082;2024-01-15T08:10:40;13.20;;;5.30;;
62037;SDS011;47991;42.974;12.082;2024-01-15T08:13:07;18.90;;;4.80;;
62037;SDS011;47991;42.974;12.082;2024-01-15T08:15:35;14.50;;;4.20;;
62037;SDS011;47991;42.974;12.082;2024-01-15T08:18:02;12.70;;;4.50;;
62037;SDS011;47991;42.974;12.082;2024-01-15T08:20:31;12.50;;;4.20;;
62037;SDS011;47991;42.974;12.082;2024-01-15T08:22:58;11.90;;;4.20;;
62037;SDS011;47991;42.974;12.082;2024-01-15T08:25:25;10.40;;;4.40;;
62037;SDS011;47991;42.974;12.082;2024-01-15T08:27:52;10.50;;;3.80;;
62037;SDS011;47991;42.974;12.082;2024-01-15T08:30:19;14.70;;;4.30;;
62037;SDS011;47991;42.974;12.082;2024-01-15T08:32:47;9.00;;;4.10;;
62037;SDS011;47991;42.974;12.082;2024-01-15T08:35:14;12.90;;;3.90;;
62037;SDS011;47991;42.974;12.082;2024-01-15T08:37:42;13.70;;;4.10;;
62037;SDS011;47991;42.974;12.082;2024-01-15T08:40:09;11.60;;;4.30;;
62037;SDS011;47991;42.974;12.082;2024-01-15T08:42:37;12.70;;;4.40;;
62037;SDS011;47991;42.974;12.082;2024-01-15T08:45:04;12.10;;;4.30;;
62037;SDS011;47991;42.974;12.082;2024-01-15T08:47:31;15.60;;;4.40;;
62037;SDS011;47991;42.974;12.082;2024-01-15T08:49:58;14.30;;;4.70;;
62037;SDS011;47991;42.974;12.082;2024-01-15T08:52:25;17.00;;;5.00;;
62037;SDS011;47991;42.974;12.082;2024-01-15T08:54:52;12.60;;;4.30;;
62037;SDS011;47991;42.974;12.082;2024-01-15T08:57:19;13.70;;;4.20;;
62037;SDS011;47991;42.974;12.082;2024-01-15T08:59:46;12.60;;;4.90;;
62037;SDS011;47991;42.974;12.082;2024-01-15T09:02:13;13.30;;;4.90;;
62037;SDS011;47991;42.974;12.082;2024-01-15T09:04:41;12.40;;;4.80;;
62037;SDS011;47991;42.974;12.082;2024-01-15T09:07:09;14.60;;;4.70;;
62037;SDS011;47991;42.974;12.082;2024-01-15T09:09:36;11.00;;;4.30;;
62037;SDS011;47991;42.974;12.082;2024-01-15T09:12:04;12.50;;;4.60;;
62037;SDS011;47991;42.974;12.082;2024-01-15T09:14:31;13.10;;;4.50;;
62037;SDS011;47991;42.974;12.082;2024-01-15T09:17:00;9.70;;;3.70;;
62037;SDS011;47991;42.974;12.082;2024-01-15T09:19:27;9.70;;;4.30;;
62037;SDS011;47991;42.974;12.082;2024-01-15T09:21:54;12.70;;;4.60;;
62037;SDS011;47991;42.974;12.082;2024-01-15T09:24:22;11.80;;;4.90;;
62037;SDS011;47991;42.974;12.082;2024-01-15T09:26:49;11.70;;;3.90;;
62037;SDS011;47991;42.974;12.082;2024-01-15T09:29:16;12.60;;;4.60;;
62037;SDS011;47991;42.974;12.082;2024-01-15T09:31:44;9.00;;;4.00;;
62037;SDS011;47991;42.974;12.082;2024-01-15T09:34:11;12.20;;;4.70;;
62037;SDS011;47991;42.974;12.082;2024-01-15T09:36:39;13.40;;;4.00;;
62037;SDS011;47991;42.974;12.082;2024-01-15T09:39:10;16.70;;;4.20;;
62037;SDS011;47991;42.974;12.082;2024-01-15T09:41:37;15.10;;;4.50;;
62037;SDS011;47991;42.974;12.082;2024-01-15T09:44:05;12.00;;;4.20;;
62037;SDS011;47991;42.974;12.082;2024-01-15T09:46:37;12.40;;;4.40;;
62037;SDS011;47991;42.974;12.082;2024-01-15T09:49:05;11.90;;;4.00;;
62037;SDS011;47991;42.974;12.082;2024-01-15T09:51:32;13.80;;;4.60;;
62037;SDS011;47991;42.974;12.082;2024-01-15T09:53:59;11.70;;;4.40;;
62037;SDS011;47991;42.974;12.082;2024-01-15T09:56:27;8.30;;;3.40;;
62037;SDS011;47991;42.974;12.082;2024-01-15T09:58:54;8.60;;;4.10;;
62037;SDS011;47991;42.974;12.082;2024-01-15T10:01:23;10.90;;;3.60;;
62037;SDS011;47991;42.974;12.082;2024-01-15T10:03:51;8.60;;;3.60;;
62037;SDS011;47991;42.974;12.082;2024-01-15T10:06:19;8.80;;;3.40;;
62037;SDS011;47991;42.974;12.082;2024-01-15T10:08:50;11.90;;;4.20;;
62037;SDS011;47991;42.974;12.082;2024-01-15T10:11:17;9.10;;;3.80;;
62037;SDS011;47991;42.974;12.082;2024-01-15T10:13:45;8.00;;;3.50;;
62037;SDS011;47991;42.974;12.082;2024-01-15T10:16:13;9.50;;;3.70;;
62037;SDS011;47991;42.974;12.082;2024-01-15T10:18:40;9.50;;;3.60;;
62037;SDS011;47991;42.974;12.082;2024-01-15T10:21:07;8.30;;;3.80;;
62037;SDS011;47991;42.974;12.082;2024-01-15T10:23:34;10.00;;;3.70;;
62037;SDS011;47991;42.974;12.082;2024-01-15T10:26:03;11.90;;;3.90;;
62037;SDS011;47991;42.974;12.082;2024-01-15T10:28:30;10.30;;;3.90;;
62037;SDS011;47991;42.974;12.082;2024-01-15T10:30:58;8.30;;;3.40;;
62037;SDS011;47991;42.974;12.082;2024-01-15T10:33:26;11.70;;;3.70;;
62037;SDS011;47991;42.974;12.082;2024-01-15T10:35:57;9.50;;;3.70;;
62037;SDS011;47991;42.974;12.082;2024-01-15T10:38:26;9.90;;;3.40;;
62037;SDS011;47991;42.974;12.082;2024-01-15T10:40:54;13.30;;;3.70;;
62037;SDS011;47991;42.974;12.082;2024-01-15T10:43:22;8.30;;;3.20;;
62037;SDS011;47991;42.974;12.082;2024-01-15T10:45:50;13.20;;;3.60;;
62037;SDS011;47991;42.974;12.082;2024-01-15T10:48:18;10.60;;;3.70;;
62037;SDS011;47991;42.974;12.082;2024-01-15T10:50:49;10.70;;;3.20;;
62037;SDS011;47991;42.974;12.082;2024-01-15T10:53:17;11.80;;;3.70;;
62037;SDS011;47991;42.974;12.082;2024-01-15T10:55:44;8.60;;;3.40;;
62037;SDS011;47991;42.974;12.082;2024-01-15T10:58:14;9.10;;;3.10;;
62037;SDS011;47991;42.974;12.082;2024-01-15T11:00:43;10.20;;;3.20;;
62037;SDS011;47991;42.974;12.082;2024-01-15T11:03:11;8.50;;;3.00;;
62037;SDS011;47991;42.974;12.082;2024-01-15T11:05:41;11.50;;;3.50;;
62037;SDS011;47991;42.974;12.082;2024-01-15T11:08:10;10.00;;;3.50;;
62037;SDS011;47991;42.974;12.082;2024-01-15T11:10:41;10.60;;;3.60;;
62037;SDS011;47991;42.974;12.082;2024-01-15T11:13:20;12.50;;;3.60;;
62037;SDS011;47991;42.974;12.082;2024-01-15T11:15:54;8.80;;;3.10;;
62037;SDS011;47991;42.974;12.082;2024-01-15T11:18:21;11.10;;;3.50;;
62037;SDS011;47991;42.974;12.082;2024-01-15T11:23:49;9.30;;;3.00;;
62037;SDS011;47991;42.974;12.082;2024-01-15T11:28:58;10.40;;;3.90;;
62037;SDS011;47991;42.974;12.082;2024-01-15T11:32:13;11.70;;;3.40;;
62037;SDS011;47991;42.974;12.082;2024-01-15T11:34:14;7.10;;;2.90;;
62037;SDS011;47991;42.974;12.082;2024-01-15T11:41:57;10.80;;;3.20;;
62037;SDS011;47991;42.974;12.082;2024-01-15T11:44:26;11.40;;;3.40;;
62037;SDS011;47991;42.974;12.082;2024-01-15T11:49:58;9.70;;;3.00;;
62037;SDS011;47991;42.974;12.082;2024-01-15T11:52:17;12.30;;;3.00;;
62037;SDS011;47991;42.974;12.082;2024-01-15T11:54:48;13.90;;;4.10;;
62037;SDS011;47991;42.974;12.082;2024-01-15T12:00:18;10.00;;;2.90;;
62037;SDS011;47991;42.974;12.082;2024-01-15T12:02:46;6.40;;;2.70;;
62037;SDS011;47991;42.974;12.082;2024-01-15T12:05:17;10.50;;;3.50;;
62037;SDS011;47991;42.974;12.082;2024-01-15T12:07:46;8.50;;;2.80;;
62037;SDS011;47991;42.974;12.082;2024-01-15T12:10:16;9.50;;;3.40;;
62037;SDS011;47991;42.974;12.082;2024-01-15T12:15:22;8.90;;;2.90;;
62037;SDS011;47991;42.974;12.082;2024-01-15T12:17:49;9.80;;;3.20;;
62037;SDS011;47991;42.974;12.082;2024-01-15T12:20:17;12.80;;;3.20;;
62037;SDS011;47991;42.974;12.082;2024-01-15T12:22:45;9.80;;;3.20;;
62037;SDS011;47991;42.974;12.082;2024-01-15T12:25:12;8.90;;;2.60;;
62037;SDS011;47991;42.974;12.082;2024-01-15T12:27:39;8.10;;;2.90;;
62037;SDS011;47991;42.974;12.082;2024-01-15T12:30:06;9.10;;;3.00;;
62037;SDS011;47991;42.974;12.082;2024-01-15T12:32:37;10.80;;;2.90;;
62037;SDS011;47991;42.974;12.082;2024-01-15T12:35:04;10.70;;;3.20;;
62037;SDS011;47991;42.974;12.082;2024-01-15T12:37:32;10.40;;;3.20;;
62037;SDS011;47991;42.974;12.082;2024-01-15T12:39:59;9.30;;;3.20;;
62037;SDS011;47991;42.974;12.082;2024-01-15T12:42:27;9.40;;;3.10;;
62037;SDS011;47991;42.974;12.082;2024-01-15T12:44:55;7.60;;;2.90;;
62037;SDS011;47991;42.974;12.082;2024-01-15T12:47:23;8.90;;;3.10;;
62037;SDS011;47991;42.974;12.082;2024-01-15T12:49:52;8.80;;;3.00;;
62037;SDS011;47991;42.974;12.082;2024-01-15T12:52:22;9.30;;;2.60;;
62037;SDS011;47991;42.974;12.082;2024-01-15T12:54:49;9.70;;;3.00;;
62037;SDS011;47991;42.974;12.082;2024-01-15T12:57:16;9.20;;;3.20;;
62037;SDS011;47991;42.974;12.082;2024-01-15T12:59:44;10.00;;;3.00;;
62037;SDS011;47991;42.974;12.082;2024-01-15T13:02:12;9.80;;;3.10;;
62037;SDS011;47991;42.974;12.082;2024-01-15T13:04:40;8.30;;;3.00;;
62037;SDS011;47991;42.974;12.082;2024-01-15T13:07:07;13.00;;;3.20;;
62037;SDS011;47991;42.974;12.082;2024-01-15T13:09:35;11.40;;;3.70;;
62037;SDS011;47991;42.974;12.082;2024-01-15T13:12:02;12.40;;;3.40;;
62037;SDS011;47991;42.974;12.082;2024-01-15T13:14:30;7.90;;;2.80;;
62037;SDS011;47991;42.974;12.082;2024-01-15T13:17:00;11.20;;;3.30;;
62037;SDS011;47991;42.974;12.082;2024-01-15T13:19:27;9.20;;;3.10;;
62037;SDS011;47991;42.974;12.082;2024-01-15T13:21:55;12.70;;;3.90;;
62037;SDS011;47991;42.974;12.082;2024-01-15T13:24:25;12.00;;;3.30;;
62037;SDS011;47991;42.974;12.082;2024-01-15T13:26:52;10.10;;;3.10;;
62037;SDS011;47991;42.974;12.082;2024-01-15T13:29:19;9.10;;;3.60;;
62037;SDS011;47991;42.974;12.082;2024-01-15T13:31:46;12.30;;;3.30;;
62037;SDS011;47991;42.974;12.082;2024-01-15T13:34:13;7.30;;;2.60;;
62037;SDS011;47991;42.974;12.082;2024-01-15T13:36:40;11.40;;;3.50;;
62037;SDS011;47991;42.974;12.082;2024-01-15T13:39:07;12.10;;;4.00;;
62037;SDS011;47991;42.974;12.082;2024-01-15T13:41:35;9.60;;;3.20;;
62037;SDS011;47991;42.974;12.082;2024-01-15T13:44:04;12.80;;;3.20;;
62037;SDS011;47991;42.974;12.082;2024-01-15T13:46:32;8.90;;;2.70;;
62037;SDS011;47991;42.974;12.082;2024-01-15T13:49:00;11.20;;;3.90;;
62037;SDS011;47991;42.974;12.082;2024-01-15T13:51:28;10.90;;;3.40;;
62037;SDS011;47991;42.974;12.082;2024-01-15T13:53:56;10.70;;;3.50;;
62037;SDS011;47991;42.974;12.082;2024-01-15T13:56:23;9.00;;;3.50;;
62037;SDS011;47991;42.974;12.082;2024-01-15T13:58:50;14.40;;;3.50;;
62037;SDS011;47991;42.974;12.082;2024-01-15T14:01:18;15.50;;;4.50;;
62037;SDS011;47991;42.974;12.082;2024-01-15T14:03:46;11.00;;;3.30;;
62037;SDS011;47991;42.974;12.082;2024-01-15T14:06:13;7.20;;;2.90;;
62037;SDS011;47991;42.974;12.082;2024-01-15T14:08:40;8.30;;;2.80;;
62037;SDS011;47991;42.974;12.082;2024-01-15T14:11:13;11.90;;;3.40;;
62037;SDS011;47991;42.974;12.082;2024-01-15T14:13:41;10.00;;;3.30;;
62037;SDS011;47991;42.974;12.082;2024-01-15T14:16:08;13.60;;;3.30;;
62037;SDS011;47991;42.974;12.082;2024-01-15T14:18:36;9.10;;;3.40;;
62037;SDS011;47991;42.974;12.082;2024-01-15T14:21:04;11.50;;;3.20;;
62037;SDS011;47991;42.974;12.082;2024-01-15T14:23:31;10.00;;;3.20;;
62037;SDS011;47991;42.974;12.082;2024-01-15T14:25:59;9.00;;;3.30;;
62037;SDS011;47991;42.974;12.082;2024-01-15T14:28:26;10.40;;;3.40;;
62037;SDS011;47991;42.974;12.082;2024-01-15T14:30:53;10.70;;;3.60;;
62037;SDS011;47991;42.974;12.082;2024-01-15T14:33:20;11.10;;;3.30;;
62037;SDS011;47991;42.974;12.082;2024-01-15T14:35:47;13.00;;;3.90;;
62037;SDS011;47991;42.974;12.082;2024-01-15T14:38:15;11.10;;;3.00;;
62037;SDS011;47991;42.974;12.082;2024-01-15T14:40:42;9.10;;;3.00;;
62037;SDS011;47991;42.974;12.082;2024-01-15T14:43:10;13.80;;;3.90;;
62037;SDS011;47991;42.974;12.082;2024-01-15T14:45:37;15.00;;;3.80;;
62037;SDS011;47991;42.974;12.082;2024-01-15T14:48:05;10.40;;;3.70;;
62037;SDS011;47991;42.974;12.082;2024-01-15T14:50:32;13.80;;;4.10;;